Time;durP1;ratioP1;P1;durP2;ratioP2;P2;SDS_P1;SDS_P2;PMS_P1;PMS_P2;Temp;Humidity;BMP_temperature;BMP_pressure;BME280_temperature;BME280_humidity;BME280_pressure;Samples;Min_cycle;Max_cycle;Signal;HPM_P1;HPM_P2
2022/03/31 00:00:21;;;;;;;64.17;60.70;;;;;;;5.34;100.00;100677.66;1917947;73;32921;-78
2022/03/31 00:06:05;;;;;;;64.83;61.40;;;;;;;5.45;100.00;100672.56;1934884;73;32960;-79
2022/03/31 00:11:49;;;;;;;63.50;60.17;;;;;;;5.46;100.00;100669.56;1939962;73;32970;-75
2022/03/31 00:17:33;;;;;;;66.17;62.77;;;;;;;5.40;100.00;100666.44;1939515;73;33460;-74
2022/03/31 00:23:18;;;;;;;65.40;61.90;;;;;;;5.47;100.00;100678.13;1940148;74;32979;-79
2022/03/31 00:29:05;;;;;;;61.80;58.50;;;;;;;5.37;100.00;100686.24;1923585;73;33420;-76
2022/03/31 00:34:50;;;;;;;64.67;61.07;;;;;;;5.42;100.00;100682.18;1934679;73;33558;-74
2022/03/31 00:40:34;;;;;;;63.33;60.07;;;;;;;5.42;100.00;100677.22;1939914;73;33572;-77
2022/03/31 00:46:23;;;;;;;62.13;58.93;;;;;;;5.39;100.00;100673.60;1923393;73;32913;-76
2022/03/31 00:52:20;;;;;;;61.83;58.67;;;;;;;5.32;100.00;100668.80;1922761;73;33029;-79
2022/03/31 00:58:05;;;;;;;64.10;60.90;;;;;;;5.49;100.00;100659.94;1918020;73;33023;-74
2022/03/31 01:03:49;;;;;;;62.77;59.67;;;;;;;5.30;100.00;100666.88;1929162;73;32901;-79
2022/03/31 01:09:33;;;;;;;61.10;57.90;;;;;;;5.20;100.00;100663.97;1934009;73;32992;-79
2022/03/31 01:15:20;;;;;;;59.40;56.40;;;;;;;5.13;100.00;100663.33;1922756;74;32974;-76
2022/03/31 01:21:05;;;;;;;60.63;57.53;;;;;;;5.00;100.00;100665.90;1917200;74;33457;-80
2022/03/31 01:26:50;;;;;;;62.40;59.20;;;;;;;5.02;100.00;100666.46;1928785;73;33051;-75
2022/03/31 01:32:34;;;;;;;63.77;60.57;;;;;;;5.07;100.00;100667.92;1934664;73;32985;-80
2022/03/31 01:38:20;;;;;;;61.70;58.50;;;;;;;5.09;100.00;100658.05;1928985;73;33071;-73
2022/03/31 01:44:06;;;;;;;61.27;58.13;;;;;;;4.94;100.00;100666.36;1929026;73;32906;-79
2022/03/31 01:49:50;;;;;;;64.13;60.83;;;;;;;4.93;100.00;100668.81;1916971;73;32976;-79
2022/03/31 01:55:37;;;;;;;65.50;61.90;;;;;;;4.82;100.00;100670.30;1933566;73;32931;-79
2022/03/31 02:01:21;;;;;;;65.47;61.77;;;;;;;4.93;100.00;100675.70;1939386;73;33138;-81
2022/03/31 02:07:06;;;;;;;67.03;63.33;;;;;;;4.84;100.00;100672.23;1928421;74;33429;-79
2022/03/31 02:12:50;;;;;;;67.87;63.97;;;;;;;4.83;100.00;100681.06;1922841;74;32944;-78
2022/03/31 02:18:35;;;;;;;68.07;64.37;;;;;;;4.93;100.00;100686.70;1928589;73;33057;-78
2022/03/31 02:24:23;;;;;;;69.23;65.43;;;;;;;5.03;100.00;100681.90;1923348;73;33014;-86
2022/03/31 02:30:10;;;;;;;67.23;63.40;;;;;;;5.09;100.00;100681.44;1928977;73;33059;-74
2022/03/31 02:35:54;;;;;;;65.87;62.17;;;;;;;4.99;100.00;100684.87;1934474;73;32921;-74
2022/03/31 02:41:38;;;;;;;65.00;61.40;;;;;;;5.04;100.00;100684.95;1939996;74;33415;-80
2022/03/31 02:47:23;;;;;;;67.13;63.33;;;;;;;4.94;100.00;100681.50;1933952;73;33058;-74
2022/03/31 02:59:09;;;;;;;65.17;61.40;;;;;;;4.82;100.00;100681.30;1939932;73;32982;-79
2022/03/31 03:04:54;;;;;;;66.53;62.93;;;;;;;4.80;100.00;100678.79;1939635;73;33096;-78
2022/03/31 03:10:38;;;;;;;65.93;62.23;;;;;;;4.88;100.00;100678.36;1939932;73;32987;-74
2022/03/31 03:16:24;;;;;;;66.70;63.00;;;;;;;4.80;100.00;100675.20;1934457;73;33437;-74
2022/03/31 03:22:09;;;;;;;63.90;60.40;;;;;;;4.82;100.00;100677.17;1911678;73;33493;-76
2022/03/31 03:27:54;;;;;;;67.17;63.37;;;;;;;4.77;100.00;100688.09;1934049;73;33396;-78
2022/03/31 03:33:38;;;;;;;63.73;60.33;;;;;;;4.70;100.00;100679.19;1922323;73;32928;-79
2022/03/31 03:39:23;;;;;;;67.53;63.93;;;;;;;4.52;100.00;100687.98;1917149;73;33382;-74
2022/03/31 03:45:10;;;;;;;66.37;62.87;;;;;;;4.60;100.00;100685.36;1901365;72;39619;-76
2022/03/31 03:50:55;;;;;;;64.97;61.47;;;;;;;4.50;100.00;100673.63;1934253;73;33102;-75
2022/03/31 03:56:39;;;;;;;65.97;62.57;;;;;;;4.47;100.00;100673.30;1917767;73;32932;-80
2022/03/31 04:02:23;;;;;;;65.47;61.97;;;;;;;4.29;100.00;100677.12;1939598;74;33451;-78
2022/03/31 04:08:08;;;;;;;64.80;61.30;;;;;;;4.11;100.00;100680.08;1917365;73;33375;-78
2022/03/31 04:13:53;;;;;;;66.37;62.57;;;;;;;3.93;100.00;100688.55;1923324;73;32927;-74
2022/03/31 04:19:37;;;;;;;65.87;62.17;;;;;;;3.97;100.00;100689.73;1929036;73;32992;-78
2022/03/31 04:25:23;;;;;;;66.00;62.30;;;;;;;3.98;100.00;100697.71;1911832;73;32969;-76
2022/03/31 04:31:08;;;;;;;63.87;60.27;;;;;;;3.89;100.00;100686.84;1939941;73;33040;-74
2022/03/31 04:36:52;;;;;;;65.90;62.07;;;;;;;3.90;100.00;100695.89;1934255;73;33078;-79
2022/03/31 04:42:36;;;;;;;64.37;60.77;;;;;;;3.92;100.00;100701.99;1911717;73;33425;-78
2022/03/31 04:48:23;;;;;;;67.03;63.33;;;;;;;3.88;100.00;100700.81;1923459;73;33074;-74
2022/03/31 04:54:07;;;;;;;66.40;62.30;;;;;;;3.71;100.00;100715.87;1928365;73;33047;-77
2022/03/31 04:59:54;;;;;;;65.57;61.87;;;;;;;3.68;100.00;100709.47;1929030;73;32992;-79
2022/03/31 05:05:42;;;;;;;64.27;60.57;;;;;;;3.60;100.00;100705.73;1917754;73;33063;-82
2022/03/31 05:11:27;;;;;;;68.93;65.00;;;;;;;3.53;100.00;100714.66;1939908;73;33031;-74
2022/03/31 05:17:13;;;;;;;66.67;62.83;;;;;;;3.54;100.00;100724.03;1929288;73;33022;-80
2022/03/31 05:22:58;;;;;;;67.83;63.63;;;;;;;3.46;100.00;100717.55;1940554;73;33040;-78
2022/03/31 05:28:42;;;;;;;67.40;63.30;;;;;;;3.55;100.00;100731.17;1940318;74;33059;-80
2022/03/31 05:34:26;;;;;;;67.90;64.00;;;;;;;3.49;100.00;100726.66;1928982;73;32914;-79
2022/03/31 05:40:14;;;;;;;66.33;62.53;;;;;;;3.40;100.00;100744.58;1940407;73;33506;-74
2022/03/31 05:45:58;;;;;;;65.40;61.50;;;;;;;3.30;100.00;100738.86;1911707;73;32925;-77
2022/03/31 05:51:43;;;;;;;67.40;63.60;;;;;;;3.43;100.00;100748.20;1928226;73;33472;-77
2022/03/31 05:57:27;;;;;;;65.60;61.80;;;;;;;3.40;100.00;100751.45;1928355;74;33349;-73
2022/03/31 06:03:11;;;;;;;64.93;61.00;;;;;;;3.26;100.00;100749.18;1934183;73;33231;-75
2022/03/31 06:08:55;;;;;;;65.60;61.67;;;;;;;3.19;100.00;100758.92;1923441;73;33078;-74
2022/03/31 06:14:39;;;;;;;66.20;62.40;;;;;;;3.31;100.00;100759.75;1939963;73;32997;-79
2022/03/31 06:20:23;;;;;;;68.83;64.83;;;;;;;3.37;100.00;100758.80;1929182;73;33461;-74
2022/03/31 06:26:10;;;;;;;67.50;63.60;;;;;;;3.24;100.00;100770.03;1918052;73;32925;-77
2022/03/31 06:31:54;;;;;;;68.13;64.13;;;;;;;3.30;100.00;100773.70;1939421;73;32991;-74
2022/03/31 06:37:39;;;;;;;67.47;63.67;;;;;;;3.29;100.00;100777.01;1928738;73;33553;-73
2022/03/31 06:43:26;;;;;;;64.10;60.10;;;;;;;3.34;100.00;100779.84;1934082;73;33082;-77
2022/03/31 06:49:10;;;;;;;66.53;62.63;;;;;;;3.62;100.00;100789.56;1934855;73;33161;-76
2022/03/31 06:54:54;;;;;;;65.70;61.93;;;;;;;3.63;100.00;100810.47;1935934;73;33025;-77
2022/03/31 07:00:39;;;;;;;66.03;62.00;;;;;;;3.76;100.00;100814.03;1933802;73;33571;-77
2022/03/31 07:06:23;;;;;;;68.17;64.13;;;;;;;3.92;100.00;100813.27;1939426;73;33009;-76
2022/03/31 07:12:10;;;;;;;66.27;62.37;;;;;;;3.96;100.00;100809.80;1923690;74;33034;-78
2022/03/31 07:17:54;;;;;;;62.80;59.10;;;;;;;4.22;100.00;100813.91;1922649;73;33453;-74
2022/03/31 07:23:55;;;;;;;62.03;58.53;;;;;;;4.60;100.00;100809.14;1934395;74;33062;-81
2022/03/31 07:29:41;;;;;;;58.90;55.70;;;;;;;4.46;100.00;100807.22;1922665;73;32966;-69
2022/03/31 07:35:27;;;;;;;61.37;58.07;;;;;;;4.48;100.00;100820.20;1911738;73;32924;-74
2022/03/31 07:41:12;;;;;;;58.07;54.63;;;;;;;4.65;100.00;100818.02;1939395;73;33044;-69
2022/03/31 07:46:57;;;;;;;60.37;56.87;;;;;;;4.73;100.00;100821.75;1929000;73;32972;-71
2022/03/31 07:52:42;;;;;;;60.57;57.27;;;;;;;4.51;100.00;100819.70;1923066;73;32966;-70
2022/03/31 07:58:27;;;;;;;59.37;56.00;;;;;;;4.70;100.00;100827.22;1911684;73;32908;-75
2022/03/31 08:04:11;;;;;;;59.50;56.30;;;;;;;4.65;100.00;100838.13;1934347;73;33188;-73
2022/03/31 08:09:55;;;;;;;57.93;54.77;;;;;;;4.77;100.00;100829.80;1939653;73;32993;-72
2022/03/31 08:15:42;;;;;;;58.90;55.80;;;;;;;4.86;100.00;100828.31;1933928;73;33443;-72
2022/03/31 08:21:26;;;;;;;56.07;53.10;;;;;;;4.84;100.00;100834.59;1928468;73;33018;-74
2022/03/31 08:27:11;;;;;;;57.60;54.33;;;;;;;4.90;100.00;100844.63;1934742;73;33495;-72
2022/03/31 08:32:56;;;;;;;56.80;53.90;;;;;;;5.05;100.00;100837.45;1934389;73;32903;-73
2022/03/31 08:38:40;;;;;;;58.90;55.80;;;;;;;5.01;100.00;100850.05;1923892;73;32907;-74
2022/03/31 08:44:25;;;;;;;56.60;53.57;;;;;;;5.37;100.00;100839.10;1924208;73;32968;-71
2022/03/31 08:50:13;;;;;;;59.20;56.20;;;;;;;5.41;100.00;100839.42;1917464;73;33442;-73
2022/03/31 08:55:57;;;;;;;65.33;61.83;;;;;;;5.26;100.00;100858.47;1928684;73;33087;-73
2022/03/31 09:01:42;;;;;;;60.73;57.40;;;;;;;5.25;100.00;100860.92;1928552;73;33094;-70
2022/03/31 09:07:35;;;;;;;60.77;57.37;;;;;;;5.60;100.00;100867.55;1917217;73;32948;-75
2022/03/31 09:13:23;;;;;;;59.70;56.57;;;;;;;5.50;100.00;100871.81;1940403;73;33171;-75
2022/03/31 09:19:10;;;;;;;52.20;49.40;;;;;;;5.57;100.00;100890.08;1917101;73;33048;-74
2022/03/31 09:25:08;;;;;;;53.40;50.70;;;;;;;5.94;100.00;100878.30;1939777;73;33199;-74
2022/03/31 09:30:54;;;;;;;55.17;52.27;;;;;;;6.01;100.00;100897.95;1911418;73;33042;-75
2022/03/31 09:36:50;;;;;;;61.57;58.07;;;;;;;5.53;100.00;100905.44;1911746;73;33007;-73
2022/03/31 09:42:35;;;;;;;60.70;57.20;;;;;;;5.59;100.00;100915.47;1939798;73;32965;-75
2022/03/31 09:48:21;;;;;;;60.97;57.67;;;;;;;5.94;100.00;100896.23;1917090;74;33062;-75
2022/03/31 09:54:06;;;;;;;49.93;47.30;;;;;;;6.18;100.00;100907.86;1929318;73;32986;-74
2022/03/31 09:59:54;;;;;;;47.50;44.67;;;;;;;6.38;100.00;100905.36;1929524;73;33540;-73
2022/03/31 10:05:39;;;;;;;41.47;39.07;;;;;;;6.56;100.00;100907.50;1911739;73;33017;-76
2022/03/31 10:11:28;;;;;;;41.93;39.17;;;;;;;7.01;100.00;100890.09;1939469;73;32983;-74
2022/03/31 10:17:28;;;;;;;28.97;27.17;;;;;;;7.49;100.00;100889.67;1939680;73;33060;-77
2022/03/31 10:29:42;;;;;;;15.97;14.87;;;;;;;7.26;100.00;100892.27;1928543;73;33034;-76
2022/03/31 10:35:36;;;;;;;16.63;15.43;;;;;;;7.29;100.00;100913.28;1933757;74;33055;-75
2022/03/31 10:41:33;;;;;;;15.20;14.23;;;;;;;6.86;100.00;100921.67;1939959;73;33437;-75
2022/03/31 10:47:19;;;;;;;14.93;13.97;;;;;;;6.78;100.00;100926.27;1939572;74;33067;-76
2022/03/31 10:53:09;;;;;;;17.00;15.80;;;;;;;6.76;100.00;100925.14;1939831;73;33631;-75
2022/03/31 10:58:54;;;;;;;13.27;12.03;;;;;;;7.30;100.00;100923.80;1940021;73;33527;-75
2022/03/31 11:04:49;;;;;;;11.50;10.80;;;;;;;8.19;100.00;100908.16;1928979;73;33416;-74
2022/03/31 11:10:44;;;;;;;12.60;11.50;;;;;;;8.62;100.00;100901.48;1934860;74;32988;-77
2022/03/31 11:16:37;;;;;;;11.77;10.83;;;;;;;8.85;100.00;100895.19;1928844;74;33060;-75
2022/03/31 11:22:26;;;;;;;16.43;11.37;;;;;;;8.09;100.00;100900.34;1939724;73;33498;-76
2022/03/31 11:28:13;;;;;;;12.50;11.40;;;;;;;8.00;100.00;100904.73;1939858;73;33050;-75
2022/03/31 11:33:58;;;;;;;11.47;10.53;;;;;;;8.02;100.00;100903.35;1928298;73;33461;-76
2022/03/31 11:39:51;;;;;;;11.70;10.90;;;;;;;8.64;100.00;100904.80;1929374;73;32932;-76
2022/03/31 11:45:37;;;;;;;11.23;10.53;;;;;;;8.66;95.73;100912.29;1928771;74;33593;-73
2022/03/31 11:51:23;;;;;;;10.70;10.10;;;;;;;8.86;93.16;100910.68;1922706;73;33092;-77
2022/03/31 11:57:09;;;;;;;11.27;10.77;;;;;;;8.45;100.00;100936.84;2056450;69;32787;-76
2022/03/31 12:03:04;;;;;;;12.10;10.87;;;;;;;8.05;100.00;100940.16;1929594;73;33377;-74
2022/03/31 12:08:48;;;;;;;11.80;10.70;;;;;;;8.02;100.00;100954.53;1929449;74;33011;-75
2022/03/31 12:14:34;;;;;;;12.40;11.63;;;;;;;8.56;100.00;100941.86;1939905;73;33538;-76
2022/03/31 12:20:20;;;;;;;11.30;10.70;;;;;;;8.79;100.00;100946.12;1923128;73;33415;-74
2022/03/31 12:26:13;;;;;;;11.90;10.90;;;;;;;8.64;100.00;100974.02;1917880;73;32988;-77
2022/03/31 12:32:04;;;;;;;10.97;10.20;;;;;;;8.04;100.00;100970.88;1934326;73;33065;-71
2022/03/31 12:37:51;;;;;;;11.70;10.90;;;;;;;8.00;100.00;100976.07;1928929;73;33402;-76
2022/03/31 12:43:35;;;;;;;11.47;10.60;;;;;;;8.39;100.00;100965.58;1934875;74;33003;-77
2022/03/31 12:49:36;;;;;;;15.10;14.07;;;;;;;8.49;100.00;100963.42;1911608;74;33082;-76
2022/03/31 12:55:34;;;;;;;12.33;11.17;;;;;;;8.95;100.00;100966.67;1934292;73;33079;-75
2022/03/31 13:01:20;;;;;;;11.00;10.10;;;;;;;8.70;100.00;100981.80;1934098;74;32991;-75
2022/03/31 13:07:09;;;;;;;11.40;10.10;;;;;;;7.58;100.00;100984.84;1911911;73;32975;-74
2022/03/31 13:12:54;;;;;;;12.80;11.90;;;;;;;7.43;100.00;100980.02;1933010;73;33536;-77
2022/03/31 13:18:40;;;;;;;12.00;10.90;;;;;;;8.47;100.00;100969.80;1939982;73;32982;-75
2022/03/31 13:24:25;;;;;;;11.27;10.43;;;;;;;9.36;100.00;100973.73;1922970;73;33522;-73
2022/03/31 13:30:10;;;;;;;12.27;11.03;;;;;;;8.66;100.00;100982.06;1928677;73;33044;-72
2022/03/31 13:35:57;;;;;;;11.70;10.80;;;;;;;9.36;100.00;100966.80;1922827;73;32999;-73
2022/03/31 13:41:42;;;;;;;10.97;10.17;;;;;;;8.36;100.00;101004.87;1923032;74;33480;-74
2022/03/31 13:47:27;;;;;;;11.30;10.80;;;;;;;7.61;100.00;101005.07;1923282;73;32920;-78
2022/03/31 14:05:16;;;;;;;11.10;10.40;;;;;;;8.90;100.00;100979.12;1923203;73;32985;-79
2022/03/31 14:11:00;;;;;;;11.47;10.90;;;;;;;8.93;100.00;100978.59;1939535;73;32992;-74
2022/03/31 14:16:48;;;;;;;11.37;10.70;;;;;;;9.23;100.00;100973.70;1940126;73;33519;-76
2022/03/31 14:22:33;;;;;;;94.17;21.17;;;;;;;8.72;100.00;101032.23;1917220;73;33586;-79
2022/03/31 14:28:18;;;;;;;22.40;21.07;;;;;;;6.24;100.00;101124.75;1911761;73;33487;-77
2022/03/31 14:34:05;;;;;;;28.80;27.20;;;;;;;5.38;100.00;101076.28;1934386;73;33111;-76
2022/03/31 14:39:49;;;;;;;20.33;19.13;;;;;;;5.65;100.00;101053.06;1917836;73;33602;-72
2022/03/31 14:45:34;;;;;;;15.50;14.70;;;;;;;6.35;100.00;101045.20;1939155;73;33488;-71
2022/03/31 14:51:23;;;;;;;13.40;12.40;;;;;;;7.15;100.00;101050.70;1917867;73;33524;-74
2022/03/31 14:57:08;;;;;;;11.90;10.90;;;;;;;7.46;100.00;101044.98;2062439;69;32851;-73
2022/03/31 15:02:51;;;;;;;11.50;11.00;;;;;;;6.78;100.00;101065.69;1934576;73;33418;-75
2022/03/31 15:08:35;;;;;;;12.33;11.60;;;;;;;6.11;100.00;101064.41;1911600;73;32937;-73
2022/03/31 15:14:32;;;;;;;12.73;11.80;;;;;;;6.03;100.00;101052.95;1928753;73;33038;-74
2022/03/31 15:20:16;;;;;;;15.40;14.50;;;;;;;6.15;100.00;101048.19;1934280;73;33069;-73
2022/03/31 15:26:01;;;;;;;12.67;11.87;;;;;;;6.84;100.00;101038.45;1934137;73;33002;-75
2022/03/31 15:31:46;;;;;;;11.17;10.40;;;;;;;7.37;100.00;101036.86;1940137;73;33547;-72
2022/03/31 15:37:31;;;;;;;11.40;10.80;;;;;;;7.37;100.00;101031.33;1934502;73;33019;-75
2022/03/31 15:43:17;;;;;;;11.33;10.73;;;;;;;7.24;100.00;101032.58;1929186;73;33058;-75
2022/03/31 15:49:06;;;;;;;11.17;10.57;;;;;;;6.89;100.00;101042.62;1941201;73;33025;-73
2022/03/31 15:54:51;;;;;;;11.40;10.70;;;;;;;7.18;100.00;101039.98;1922818;73;33492;-73
2022/03/31 16:00:36;;;;;;;11.13;10.43;;;;;;;7.36;100.00;101058.13;1939771;73;33432;-73
2022/03/31 16:06:22;;;;;;;11.13;10.43;;;;;;;7.24;100.00;101047.22;1929163;73;32959;-74
2022/03/31 16:12:07;;;;;;;11.77;11.07;;;;;;;7.11;100.00;101071.09;1934761;73;32978;-74
2022/03/31 16:17:53;;;;;;;11.50;10.80;;;;;;;7.19;100.00;101067.87;1917440;73;33051;-73
2022/03/31 16:23:43;;;;;;;11.00;10.30;;;;;;;7.25;100.00;101073.77;1917623;74;32918;-74
2022/03/31 16:29:28;;;;;;;10.97;10.47;;;;;;;7.16;100.00;101063.42;1939446;73;32979;-73
2022/03/31 16:35:13;;;;;;;11.20;10.60;;;;;;;7.27;100.00;101063.84;1917819;73;33467;-73
2022/03/31 16:40:58;;;;;;;11.10;10.40;;;;;;;7.22;100.00;101070.69;1939727;73;33094;-72
2022/03/31 16:46:43;;;;;;;11.27;10.67;;;;;;;7.36;100.00;101068.38;1917592;74;32920;-70
2022/03/31 16:52:27;;;;;;;11.60;11.00;;;;;;;7.35;100.00;101070.84;1917378;73;33369;-72
2022/03/31 16:58:12;;;;;;;11.60;10.90;;;;;;;7.17;100.00;101071.46;1939365;74;32990;-75
2022/03/31 17:03:57;;;;;;;11.00;10.50;;;;;;;7.18;100.00;101082.81;1928804;73;33548;-75
2022/03/31 17:09:41;;;;;;;11.17;10.40;;;;;;;6.88;100.00;101096.20;1938997;73;33139;-69
2022/03/31 17:15:31;;;;;;;11.50;10.90;;;;;;;6.78;100.00;101111.23;1917439;73;33394;-74
2022/03/31 17:21:12;;;;;;;11.10;10.60;;;;;;;6.82;100.00;101127.59;1923151;73;32928;-74
2022/03/31 17:26:57;;;;;;;10.80;10.30;;;;;;;6.96;100.00;101130.83;1934574;73;32919;-70
2022/03/31 17:32:41;;;;;;;10.53;10.03;;;;;;;6.97;100.00;101154.59;1939835;74;33037;-72
2022/03/31 17:38:29;;;;;;;15.50;14.47;;;;;;;6.43;100.00;101205.88;1939473;73;33511;-75
2022/03/31 17:44:12;;;;;;;46.83;44.33;;;;;;;4.61;100.00;101217.12;1939017;73;33067;-71
2022/03/31 17:49:56;;;;;;;58.70;55.27;;;;;;;4.16;100.00;101221.72;1929472;74;33028;-73
2022/03/31 17:55:41;;;;;;;60.13;56.70;;;;;;;4.10;100.00;101226.27;1922863;73;33065;-69
2022/03/31 18:01:25;;;;;;;60.40;56.70;;;;;;;3.96;100.00;101228.05;1917293;73;33398;-74
2022/03/31 18:07:10;;;;;;;62.37;58.57;;;;;;;4.28;100.00;101228.66;1935267;74;32928;-73
2022/03/31 18:12:55;;;;;;;61.63;58.20;;;;;;;4.32;100.00;101239.48;1922675;73;32975;-71
2022/03/31 18:18:41;;;;;;;57.60;54.17;;;;;;;4.33;100.00;101243.89;1934524;73;33163;-72
2022/03/31 18:24:26;;;;;;;59.77;56.57;;;;;;;4.34;100.00;101246.41;1933931;74;33047;-70
2022/03/31 18:36:19;;;;;;;54.20;51.20;;;;;;;4.45;100.00;101251.66;1917201;74;32923;-74
2022/03/31 18:42:04;;;;;;;51.67;48.80;;;;;;;4.40;100.00;101268.87;1939093;73;33079;-73
2022/03/31 18:47:52;;;;;;;43.50;41.10;;;;;;;4.39;100.00;101267.71;1939838;73;33059;-75
2022/03/31 18:53:34;;;;;;;42.70;40.40;;;;;;;4.40;100.00;101266.12;1934014;73;32936;-71
2022/03/31 18:59:17;;;;;;;40.83;38.70;;;;;;;4.52;100.00;101263.39;1929064;74;33020;-74
2022/03/31 19:05:02;;;;;;;39.13;37.10;;;;;;;4.61;100.00;101281.23;1911525;73;32915;-71
2022/03/31 19:10:47;;;;;;;34.47;32.67;;;;;;;4.70;100.00;101291.37;1922851;73;33064;-71
2022/03/31 19:16:32;;;;;;;33.30;31.43;;;;;;;4.79;100.00;101297.64;1928776;73;33461;-72
2022/03/31 19:22:16;;;;;;;37.90;36.00;;;;;;;4.62;100.00;101313.72;1922602;73;33031;-76
2022/03/31 19:28:00;;;;;;;30.37;28.67;;;;;;;4.56;100.00;101320.98;1911645;73;33334;-73
2022/03/31 19:33:44;;;;;;;32.80;31.20;;;;;;;4.64;100.00;101324.78;1928884;73;33055;-72
2022/03/31 19:39:29;;;;;;;35.07;32.83;;;;;;;4.76;100.00;101322.05;1934050;73;33389;-72
2022/03/31 19:45:13;;;;;;;35.53;33.63;;;;;;;4.65;100.00;101327.84;1917168;73;33481;-74
2022/03/31 19:50:59;;;;;;;31.57;29.70;;;;;;;4.68;100.00;101327.36;1911611;73;33055;-74
2022/03/31 19:56:43;;;;;;;33.33;31.47;;;;;;;4.61;100.00;101327.16;1898710;75;33577;-71
2022/03/31 20:02:27;;;;;;;33.10;31.37;;;;;;;4.68;100.00;101336.15;1928740;73;33503;-72
2022/03/31 20:08:12;;;;;;;36.23;34.33;;;;;;;4.68;100.00;101341.13;1939747;73;33103;-72
2022/03/31 20:17:04;;;;;;;37.80;35.90;;;;;;;4.56;100.00;101346.59;2041776;69;32776;-71
2022/03/31 20:19:35;;;;;;;36.40;34.60;;;;;;;4.51;100.00;101353.86;2023488;70;26206;-74
2022/03/31 20:22:06;;;;;;;36.90;35.10;;;;;;;4.49;100.00;101356.83;2013624;70;26284;-74
2022/03/31 20:24:36;;;;;;;37.97;36.20;;;;;;;4.45;100.00;101360.30;2018765;70;26741;-72
2022/03/31 20:27:07;;;;;;;36.90;35.03;;;;;;;4.41;100.00;101360.44;2012702;70;26694;-72
2022/03/31 20:29:37;;;;;;;37.63;35.63;;;;;;;4.42;100.00;101360.75;2015905;70;26281;-72
2022/03/31 20:32:10;;;;;;;36.33;34.43;;;;;;;4.35;100.00;101366.35;2012222;70;26254;-71
2022/03/31 20:34:41;;;;;;;36.83;34.93;;;;;;;4.43;100.00;101367.41;2011301;70;26231;-72
2022/03/31 20:37:13;;;;;;;37.00;35.13;;;;;;;4.31;100.00;101362.39;2016656;71;26183;-71
2022/03/31 20:39:43;;;;;;;38.37;36.47;;;;;;;4.36;100.00;101363.91;2000110;70;26216;-71
2022/03/31 20:42:14;;;;;;;37.60;35.53;;;;;;;4.26;100.00;101366.36;2010702;70;26226;-72
2022/03/31 20:44:44;;;;;;;36.50;34.47;;;;;;;4.28;100.00;101372.45;2016017;70;26366;-74
2022/03/31 20:47:15;;;;;;;37.43;35.50;;;;;;;4.32;100.00;101367.36;2012019;70;26291;-73
2022/03/31 20:49:45;;;;;;;38.57;36.67;;;;;;;4.23;100.00;101363.24;2014095;70;26215;-72
2022/03/31 20:52:15;;;;;;;41.97;39.87;;;;;;;4.21;100.00;101362.08;2016733;71;26209;-74
2022/03/31 20:54:45;;;;;;;40.07;37.90;;;;;;;4.18;100.00;101370.80;2008637;70;26233;-72
2022/03/31 20:57:16;;;;;;;40.57;38.37;;;;;;;4.25;100.00;101369.33;1980036;72;26177;-73
2022/03/31 20:59:46;;;;;;;43.27;41.17;;;;;;;4.09;100.00;101368.91;1980232;72;26214;-73
2022/03/31 21:02:17;;;;;;;40.07;37.97;;;;;;;4.16;100.00;101366.05;1976606;72;26723;-74
2022/03/31 21:04:48;;;;;;;39.53;37.43;;;;;;;4.15;100.00;101369.05;1976651;72;26278;-74
2022/03/31 21:07:18;;;;;;;40.73;38.43;;;;;;;4.13;100.00;101368.74;1981431;72;26312;-72
2022/03/31 21:09:48;;;;;;;42.63;40.30;;;;;;;4.19;100.00;101370.27;1976378;72;26292;-73
2022/03/31 21:12:19;;;;;;;45.63;43.13;;;;;;;4.14;100.00;101370.96;1975939;72;26358;-72
2022/03/31 21:14:50;;;;;;;45.27;42.73;;;;;;;4.07;100.00;101366.91;1979113;72;26310;-74
2022/03/31 21:17:21;;;;;;;45.50;43.10;;;;;;;4.05;100.00;101365.47;1979983;72;26440;-73
2022/03/31 21:23:08;;;;;;;43.77;41.57;;;;;;;4.07;100.00;101364.69;1934881;73;33020;-73
2022/03/31 21:28:53;;;;;;;43.80;41.40;;;;;;;4.07;100.00;101360.56;1911699;73;33012;-73
2022/03/31 21:34:38;;;;;;;43.83;41.43;;;;;;;4.03;100.00;101370.34;1916999;73;32999;-73
2022/03/31 21:40:22;;;;;;;45.67;42.93;;;;;;;3.90;100.00;101368.58;1939663;73;33007;-72
2022/03/31 21:46:07;;;;;;;45.07;42.50;;;;;;;3.91;100.00;101366.68;1923060;73;33114;-76
2022/03/31 21:51:53;;;;;;;45.97;43.50;;;;;;;3.82;100.00;101368.05;1938955;74;33195;-76
2022/03/31 21:57:37;;;;;;;44.50;42.10;;;;;;;3.88;100.00;101367.14;1939541;73;33477;-76
2022/03/31 22:03:24;;;;;;;43.60;41.30;;;;;;;3.87;100.00;101362.18;1939939;73;33138;-74
2022/03/31 22:15:11;;;;;;;45.47;42.97;;;;;;;3.75;100.00;101379.13;1928703;74;33058;-74
2022/03/31 22:20:55;;;;;;;43.47;41.07;;;;;;;3.78;100.00;101385.53;1934601;74;33011;-74
2022/03/31 22:26:41;;;;;;;43.73;41.00;;;;;;;3.73;100.00;101383.98;1939833;73;33078;-74
2022/03/31 22:32:25;;;;;;;46.00;43.60;;;;;;;3.74;100.00;101376.59;1911657;73;32956;-73
2022/03/31 22:38:10;;;;;;;46.30;43.90;;;;;;;3.68;100.00;101383.30;1923421;73;32992;-72
2022/03/31 22:43:55;;;;;;;46.67;44.10;;;;;;;3.78;100.00;101399.27;1928624;73;33073;-72
2022/03/31 22:49:40;;;;;;;44.10;41.50;;;;;;;3.82;100.00;101396.37;1939023;73;33549;-74
2022/03/31 22:55:24;;;;;;;43.83;41.63;;;;;;;3.96;100.00;101396.54;1933993;73;33067;-74
2022/03/31 23:01:11;;;;;;;42.80;40.70;;;;;;;4.01;100.00;101400.82;1939441;73;33164;-74
2022/03/31 23:06:55;;;;;;;41.03;38.93;;;;;;;4.02;100.00;101403.04;1938986;73;33485;-77
2022/03/31 23:12:40;;;;;;;43.10;40.90;;;;;;;3.91;100.00;101398.28;1923734;74;32978;-76
2022/03/31 23:18:24;;;;;;;47.03;44.50;;;;;;;3.96;100.00;101417.68;1928872;74;32955;-77
2022/03/31 23:24:09;;;;;;;47.27;44.97;;;;;;;4.01;100.00;101411.81;1917242;73;33539;-74
2022/03/31 23:29:54;;;;;;;47.80;45.20;;;;;;;4.06;100.00;101407.01;1928073;73;33070;-74
2022/03/31 23:35:38;;;;;;;50.30;47.70;;;;;;;4.03;100.00;101406.91;1929145;73;32944;-77
2022/03/31 23:41:23;;;;;;;50.33;47.83;;;;;;;4.08;100.00;101413.10;1917293;73;33061;-75
2022/03/31 23:47:08;;;;;;;53.90;51.13;;;;;;;4.10;100.00;101414.58;1928372;73;32933;-74
2022/03/31 23:52:53;;;;;;;55.47;52.50;;;;;;;4.02;100.00;101401.10;1935423;73;33447;-73
2022/03/31 23:58:37;;;;;;;59.00;55.83;;;;;;;3.88;100.00;101398.75;1935170;74;33500;-74
